Biotrans — JWPN — position and weather

sailwx.info

Track history (hours):
 
Tides and Currents Weather Stations Pressure Air Temp Water Temp Dewpoint Dewpoint Depression Visibility Wind Speed Wind Dir Waves Ship Positions

Biotrans

Last reported at 2015-Mar-01 09:33 UTC. Time now 2015-Mar-01 15:09 UTC.
Position N 69°35' E 018°51'.

Length 55 m; draft 5.5 m.

Type: Cargo ship. MMSI: 259260000.

Date/timePositionNaut miles runAvg speedWind from/ knotsBaromVisibWave heightAir tempDewpointWater temp
2015-Mar-01 09:33N 69°35' E 018°51'5 5.4
2015-Mar-01 08:33N 69°40' E 018°45'8 6.4
2015-Mar-01 07:23N 69°45' E 019°03'103 3.7
2015-Feb-28 03:33N 70°26' E 023°40'6 5.6
2015-Feb-28 02:34N 70°32' E 023°37'1 1.5
2015-Feb-28 01:33N 70°32' E 023°33'6 6.3
2015-Feb-28 00:33N 70°39' E 023°33'8 7.1
2015-Feb-27 23:24N 70°46' E 023°41'18 0.6
2015-Feb-26 19:33N 70°29' E 023°38'103 4.3
2015-Feb-25 19:23N 69°44' E 019°05'7 8.0
2015-Feb-25 18:34N 69°38' E 018°56'72 3.9
2015-Feb-25 00:10N 68°47' E 016°33'87 5.5
2015-Feb-24 08:28N 67°34' E 014°30'8 9.1
2015-Feb-24 07:34N 67°25' E 014°27'9 9.1
2015-Feb-24 06:34N 67°17' E 014°15'9 9.2
2015-Feb-24 05:33N 67°09' E 014°03'46 8.7
2015-Feb-24 00:17N 66°31' E 012°58'7 9.7
2015-Feb-23 23:33N 66°24' E 012°59'76 9.0
2015-Feb-23 15:06N 65°13' E 011°54'7 8.5
2015-Feb-23 14:19N 65°07' E 011°47'2 1.1
2015-Feb-23 12:04N 65°08' E 011°52'2 0.9
2015-Feb-23 09:33N 65°07' E 011°48'6 4.0
2015-Feb-23 08:04N 65°01' E 011°44'4 8.6
2015-Feb-23 07:34N 64°59' E 011°35'3 1.4
2015-Feb-23 05:34N 64°57' E 011°30'8 7.5
2015-Feb-23 04:34N 64°52' E 011°17'1 1.0
2015-Feb-23 03:34N 64°52' E 011°15'0 0.0
2015-Feb-23 02:33N 64°52' E 011°15'0 0.0
2015-Feb-23 01:34N 64°52' E 011°15'0 0.0
2015-Feb-23 00:34N 64°52' E 011°15'0 0.0
2015-Feb-22 23:34N 64°52' E 011°15'0 0.0
2015-Feb-22 22:33N 64°52' E 011°15'0 0.0
2015-Feb-22 21:34N 64°52' E 011°15'0 0.0
2015-Feb-22 20:33N 64°52' E 011°15'0 0.0
2015-Feb-22 19:34N 64°52' E 011°15'0 0.0
2015-Feb-22 18:34N 64°52' E 011°15'6 5.5
2015-Feb-22 17:33N 64°48' E 011°06'7 5.7
2015-Feb-22 16:22N 64°42' E 011°16'6 2.2
2015-Feb-22 13:32N 64°37' E 011°21'0 0.0
2015-Feb-22 04:28N 64°37' E 011°21'4 3.7
2015-Feb-22 03:29N 64°38' E 011°13'  
Track history (hours):
 
Tides and Currents Weather Stations Pressure Air Temp Water Temp Dewpoint Dewpoint Depression Visibility Wind Speed Wind Dir Waves Ship Positions

Biotrans

Last reported at 2015-Mar-01 09:33 UTC. Time now 2015-Mar-01 15:09 UTC.
Position N 69°35' E 018°51'.

Length 55 m; draft 5.5 m.

Type: Cargo ship. MMSI: 259260000.

Date/timePositionNaut miles runAvg speedWind from/ knotsBaromVisibWave heightAir tempDewpointWater temp
2015-Mar-01 09:33N 69°35' E 018°51'5 5.4
2015-Mar-01 08:33N 69°40' E 018°45'8 6.4
2015-Mar-01 07:23N 69°45' E 019°03'103 3.7
2015-Feb-28 03:33N 70°26' E 023°40'6 5.6
2015-Feb-28 02:34N 70°32' E 023°37'1 1.5
2015-Feb-28 01:33N 70°32' E 023°33'6 6.3
2015-Feb-28 00:33N 70°39' E 023°33'8 7.1
2015-Feb-27 23:24N 70°46' E 023°41'18 0.6
2015-Feb-26 19:33N 70°29' E 023°38'103 4.3
2015-Feb-25 19:23N 69°44' E 019°05'7 8.0
2015-Feb-25 18:34N 69°38' E 018°56'72 3.9
2015-Feb-25 00:10N 68°47' E 016°33'87 5.5
2015-Feb-24 08:28N 67°34' E 014°30'8 9.1
2015-Feb-24 07:34N 67°25' E 014°27'9 9.1
2015-Feb-24 06:34N 67°17' E 014°15'9 9.2
2015-Feb-24 05:33N 67°09' E 014°03'46 8.7
2015-Feb-24 00:17N 66°31' E 012°58'7 9.7
2015-Feb-23 23:33N 66°24' E 012°59'76 9.0
2015-Feb-23 15:06N 65°13' E 011°54'7 8.5
2015-Feb-23 14:19N 65°07' E 011°47'2 1.1
2015-Feb-23 12:04N 65°08' E 011°52'2 0.9
2015-Feb-23 09:33N 65°07' E 011°48'6 4.0
2015-Feb-23 08:04N 65°01' E 011°44'4 8.6
2015-Feb-23 07:34N 64°59' E 011°35'3 1.4
2015-Feb-23 05:34N 64°57' E 011°30'8 7.5
2015-Feb-23 04:34N 64°52' E 011°17'1 1.0
2015-Feb-23 03:34N 64°52' E 011°15'0 0.0
2015-Feb-23 02:33N 64°52' E 011°15'0 0.0
2015-Feb-23 01:34N 64°52' E 011°15'0 0.0
2015-Feb-23 00:34N 64°52' E 011°15'0 0.0
2015-Feb-22 23:34N 64°52' E 011°15'0 0.0
2015-Feb-22 22:33N 64°52' E 011°15'0 0.0
2015-Feb-22 21:34N 64°52' E 011°15'0 0.0
2015-Feb-22 20:33N 64°52' E 011°15'0 0.0
2015-Feb-22 19:34N 64°52' E 011°15'0 0.0
2015-Feb-22 18:34N 64°52' E 011°15'6 5.5
2015-Feb-22 17:33N 64°48' E 011°06'7 5.7
2015-Feb-22 16:22N 64°42' E 011°16'6 2.2
2015-Feb-22 13:32N 64°37' E 011°21'0 0.0
2015-Feb-22 04:28N 64°37' E 011°21'4 3.7
2015-Feb-22 03:29N 64°38' E 011°13'  

Dump ship's entire track history